Time;durP1;ratioP1;P1;durP2;ratioP2;P2;SDS_P1;SDS_P2;PMS_P1;PMS_P2;Temp;Humidity;BMP_temperature;BMP_pressure;BME280_temperature;BME280_humidity;BME280_pressure;Samples;Min_cycle;Max_cycle;Signal;HPM_P1;HPM_P2
2024/03/06 00:01:48;;;;;;;0.70;0.70;;;4.10;99.90;;;;;;5095750;27;19919;-77
2024/03/06 00:04:13;;;;;;;0.52;0.52;;;4.10;99.90;;;;;;5099122;27;20039;-76
2024/03/06 00:06:39;;;;;;;0.60;0.60;;;4.00;99.90;;;;;;5075247;27;20051;-77
2024/03/06 00:09:05;;;;;;;0.60;0.60;;;4.10;99.90;;;;;;5112061;27;20070;-77
2024/03/06 00:11:31;;;;;;;0.82;0.82;;;4.00;99.90;;;;;;5094252;27;20067;-76
2024/03/06 00:13:56;;;;;;;0.60;0.60;;;4.10;99.90;;;;;;5109685;27;20035;-76
2024/03/06 00:16:22;;;;;;;0.93;0.93;;;4.40;99.90;;;;;;5076149;27;20039;-76
2024/03/06 00:18:48;;;;;;;0.70;0.70;;;4.90;99.90;;;;;;5114481;27;20585;-76
2024/03/06 00:21:13;;;;;;;0.70;0.70;;;4.10;99.90;;;;;;5105680;27;20053;-76
2024/03/06 00:23:39;;;;;;;0.77;0.77;;;4.10;99.90;;;;;;5113788;27;20036;-77
2024/03/06 00:26:05;;;;;;;0.50;0.50;;;4.00;99.90;;;;;;5128285;27;20095;-75
2024/03/06 00:28:31;;;;;;;0.50;0.50;;;4.00;99.90;;;;;;5123469;27;20043;-76
2024/03/06 00:30:56;;;;;;;0.60;0.60;;;4.50;99.90;;;;;;5083489;28;20065;-76
2024/03/06 00:33:23;;;;;;;0.57;0.57;;;4.00;99.90;;;;;;5130767;27;20039;-76
2024/03/06 00:35:48;;;;;;;0.60;0.60;;;4.00;99.90;;;;;;5133413;27;20030;-76
2024/03/06 00:38:14;;;;;;;0.50;0.50;;;4.10;99.90;;;;;;5118746;27;20524;-76
2024/03/06 00:40:40;;;;;;;0.98;0.98;;;4.20;99.90;;;;;;5124235;27;20055;-77
2024/03/06 00:43:06;;;;;;;0.80;0.80;;;4.00;99.90;;;;;;5104610;27;20109;-77
2024/03/06 00:45:31;;;;;;;0.70;0.70;;;4.40;99.90;;;;;;5107868;27;20064;-75
2024/03/06 00:47:57;;;;;;;0.60;0.60;;;4.50;99.90;;;;;;5128994;27;20044;-77
2024/03/06 00:50:23;;;;;;;0.60;0.60;;;4.00;99.90;;;;;;5130900;27;20039;-76
2024/03/06 00:52:49;;;;;;;0.98;0.98;;;3.90;99.90;;;;;;5129335;27;20047;-74
2024/03/06 00:55:16;;;;;;;0.60;0.60;;;3.90;99.90;;;;;;5088218;27;20031;-75
2024/03/06 00:57:41;;;;;;;0.60;0.60;;;4.00;99.90;;;;;;5104256;27;20126;-75
2024/03/06 01:00:10;;;;;;;2.72;1.33;;;4.00;99.90;;;;;;5106952;27;20124;-75
2024/03/06 01:02:39;;;;;;;0.60;0.60;;;4.00;99.90;;;;;;5105148;27;20513;-75
2024/03/06 01:05:09;;;;;;;0.50;0.50;;;4.00;99.90;;;;;;5124933;27;20091;-75
2024/03/06 01:07:39;;;;;;;0.50;0.50;;;4.00;99.90;;;;;;5109860;27;20042;-75
2024/03/06 01:10:06;;;;;;;0.60;0.60;;;4.00;99.90;;;;;;5112729;27;20517;-75
2024/03/06 01:12:33;;;;;;;0.60;0.60;;;4.00;99.90;;;;;;5128008;27;20069;-75
2024/03/06 01:14:58;;;;;;;0.55;0.55;;;4.00;99.90;;;;;;5087079;27;20130;-75
2024/03/06 01:17:24;;;;;;;0.63;0.63;;;4.00;99.90;;;;;;5104033;27;20043;-74
2024/03/06 01:19:50;;;;;;;0.50;0.50;;;3.90;99.90;;;;;;5107702;27;20039;-75
2024/03/06 01:22:16;;;;;;;;;;;4.90;99.90;;;;;;5103635;27;20068;-75
2024/03/06 01:24:42;;;;;;;0.60;0.60;;;3.90;99.90;;;;;;5125266;27;19919;-76
2024/03/06 01:27:08;;;;;;;0.60;0.60;;;3.90;99.90;;;;;;5102977;27;20047;-74
2024/03/06 01:29:34;;;;;;;;;;;3.90;99.90;;;;;;5112790;27;20031;-75
2024/03/06 01:31:59;;;;;;;0.60;0.60;;;3.90;99.90;;;;;;5114738;27;20443;-76
2024/03/06 01:34:25;;;;;;;0.80;0.80;;;4.40;99.90;;;;;;5092948;27;20525;-75
2024/03/06 01:36:52;;;;;;;0.60;0.60;;;5.00;99.90;;;;;;5096539;27;20220;-76
2024/03/06 01:39:18;;;;;;;0.60;0.60;;;3.90;99.90;;;;;;5098753;27;20681;-76
2024/03/06 01:41:48;;;;;;;0.57;0.57;;;3.70;99.90;;;;;;5122412;27;20054;-76
2024/03/06 01:44:15;;;;;;;0.80;0.80;;;3.90;99.90;;;;;;5134947;27;20036;-75
2024/03/06 01:46:40;;;;;;;0.57;0.57;;;3.60;99.90;;;;;;5100173;27;20414;-76
2024/03/06 01:49:07;;;;;;;0.60;0.60;;;4.00;99.90;;;;;;5103329;27;20040;-76
2024/03/06 01:51:33;;;;;;;0.60;0.60;;;3.80;99.90;;;;;;5130831;27;20031;-75
2024/03/06 01:54:01;;;;;;;0.60;0.60;;;3.80;99.90;;;;;;5105573;27;20088;-77
2024/03/06 01:56:28;;;;;;;0.60;0.60;;;4.40;99.90;;;;;;5113722;27;20053;-75
2024/03/06 01:58:54;;;;;;;0.50;0.50;;;3.60;99.90;;;;;;5081731;27;20522;-75
2024/03/06 02:01:21;;;;;;;0.60;0.60;;;3.80;99.90;;;;;;5106004;27;20045;-75
2024/03/06 02:03:48;;;;;;;0.50;0.50;;;3.80;99.90;;;;;;5090619;27;20617;-76
2024/03/06 02:06:15;;;;;;;0.50;0.50;;;4.00;99.90;;;;;;5104274;27;20055;-76
2024/03/06 02:08:41;;;;;;;0.65;0.65;;;4.20;99.90;;;;;;5113423;27;20058;-76
2024/03/06 02:11:07;;;;;;;0.65;0.65;;;4.10;99.90;;;;;;5114276;27;20414;-76
2024/03/06 02:13:33;;;;;;;0.60;0.60;;;4.20;99.90;;;;;;5113253;27;20034;-76
2024/03/06 02:16:00;;;;;;;0.57;0.57;;;4.30;99.90;;;;;;5132594;27;20414;-75
2024/03/06 02:18:25;;;;;;;0.40;0.40;;;4.30;99.90;;;;;;5091310;27;20042;-76
2024/03/06 02:20:51;;;;;;;0.75;0.75;;;3.80;99.90;;;;;;5089135;27;20035;-75
2024/03/06 02:23:21;;;;;;;0.45;0.45;;;3.50;99.90;;;;;;5107058;27;20070;-75
2024/03/06 02:25:48;;;;;;;0.65;0.65;;;3.70;99.90;;;;;;5108610;27;20469;-76
2024/03/06 02:28:14;;;;;;;0.70;0.70;;;4.40;99.90;;;;;;5112183;27;20442;-75
2024/03/06 02:30:39;;;;;;;0.60;0.60;;;3.70;99.90;;;;;;5105547;27;20036;-76
2024/03/06 02:33:12;;;;;;;0.50;0.50;;;3.80;99.90;;;;;;5129347;27;20519;-76
2024/03/06 02:35:39;;;;;;;0.60;0.60;;;3.90;99.90;;;;;;5111767;27;20111;-77
2024/03/06 02:38:05;;;;;;;0.73;0.73;;;3.50;99.90;;;;;;5100859;27;20067;-76
2024/03/06 02:40:31;;;;;;;0.50;0.50;;;3.70;99.90;;;;;;5121314;27;20557;-76
2024/03/06 02:42:57;;;;;;;0.50;0.50;;;4.90;99.90;;;;;;5105816;27;20039;-76
2024/03/06 02:45:23;;;;;;;0.60;0.60;;;3.60;99.90;;;;;;5100378;27;20118;-76
2024/03/06 02:47:49;;;;;;;0.50;0.50;;;3.70;99.90;;;;;;5094114;27;20035;-75
2024/03/06 02:50:15;;;;;;;0.70;0.70;;;3.70;99.90;;;;;;5084413;27;20040;-76
2024/03/06 02:52:41;;;;;;;0.50;0.50;;;3.70;99.90;;;;;;5121854;27;20039;-77
2024/03/06 02:55:07;;;;;;;0.60;0.60;;;4.10;99.90;;;;;;5090548;27;20217;-76
2024/03/06 02:57:32;;;;;;;;;;;3.70;99.90;;;;;;5117144;27;20043;-76
2024/03/06 02:59:58;;;;;;;0.70;0.70;;;4.30;99.90;;;;;;5104618;27;19968;-76
2024/03/06 03:02:24;;;;;;;0.70;0.70;;;4.10;99.90;;;;;;5133221;27;20076;-76
2024/03/06 03:04:52;;;;;;;0.47;0.47;;;3.80;99.90;;;;;;5105240;27;20074;-76
2024/03/06 03:07:19;;;;;;;0.50;0.50;;;3.70;99.90;;;;;;5121775;27;20048;-76
2024/03/06 03:09:45;;;;;;;0.60;0.60;;;4.40;99.90;;;;;;5098672;27;20043;-77
2024/03/06 03:12:11;;;;;;;;;;;3.70;99.90;;;;;;5097897;27;20047;-75
2024/03/06 03:14:37;;;;;;;0.60;0.60;;;3.70;99.90;;;;;;5095144;27;19923;-76
2024/03/06 03:17:03;;;;;;;;;;;3.70;99.90;;;;;;5110749;27;20534;-77
2024/03/06 03:19:29;;;;;;;0.70;0.70;;;3.70;99.90;;;;;;5094464;27;20543;-75
2024/03/06 03:21:55;;;;;;;0.60;0.60;;;3.70;99.90;;;;;;5107952;27;20039;-76
2024/03/06 03:24:21;;;;;;;0.68;0.68;;;3.70;99.90;;;;;;5102258;27;20115;-78
2024/03/06 03:26:47;;;;;;;0.70;0.70;;;3.20;99.90;;;;;;5099829;27;20062;-75
2024/03/06 03:29:13;;;;;;;0.50;0.50;;;3.70;99.90;;;;;;5079832;28;20495;-76
2024/03/06 03:31:38;;;;;;;0.60;0.60;;;3.70;99.90;;;;;;5092541;27;20032;-76
2024/03/06 03:34:05;;;;;;;0.60;0.60;;;3.70;99.90;;;;;;5102179;27;20075;-76
2024/03/06 03:36:31;;;;;;;0.60;0.60;;;3.70;99.90;;;;;;5098268;27;20042;-76
2024/03/06 03:38:57;;;;;;;0.60;0.60;;;3.60;99.90;;;;;;5102200;27;20126;-77
2024/03/06 03:41:22;;;;;;;0.38;0.38;;;3.70;99.90;;;;;;5100533;27;20102;-77
2024/03/06 03:43:49;;;;;;;0.60;0.60;;;4.20;99.90;;;;;;5100473;27;20462;-78
2024/03/06 03:46:14;;;;;;;0.60;0.60;;;3.60;99.90;;;;;;5087776;28;20044;-76
2024/03/06 03:48:40;;;;;;;0.60;0.60;;;4.30;99.90;;;;;;5101056;27;20101;-77
2024/03/06 03:51:06;;;;;;;0.45;0.45;;;3.70;99.90;;;;;;5105547;27;20406;-76
2024/03/06 03:53:33;;;;;;;0.40;0.40;;;3.70;99.90;;;;;;5075519;28;20047;-75
2024/03/06 03:55:59;;;;;;;0.43;0.43;;;4.30;99.90;;;;;;5099192;27;20043;-76
2024/03/06 03:58:25;;;;;;;0.60;0.60;;;3.70;99.90;;;;;;5098649;27;20098;-75
2024/03/06 04:00:55;;;;;;;1.40;1.30;;;3.70;99.90;;;;;;5101079;27;20116;-76
2024/03/06 04:03:21;;;;;;;0.60;0.60;;;3.60;99.90;;;;;;5105712;27;20035;-75
2024/03/06 04:05:48;;;;;;;2.60;0.98;;;3.60;99.90;;;;;;5117560;27;20041;-76
2024/03/06 04:08:14;;;;;;;0.60;0.60;;;4.20;99.90;;;;;;5129412;27;20043;-75
2024/03/06 04:10:41;;;;;;;0.68;0.68;;;4.50;99.90;;;;;;5141731;27;20038;-77
2024/03/06 04:13:07;;;;;;;0.60;0.60;;;4.10;99.90;;;;;;5113644;27;20110;-76
2024/03/06 04:15:33;;;;;;;0.60;0.60;;;3.90;99.90;;;;;;5105062;27;20126;-76
2024/03/06 04:17:59;;;;;;;0.70;0.70;;;3.70;99.90;;;;;;5074660;28;20143;-76
2024/03/06 04:20:24;;;;;;;0.40;0.40;;;3.60;99.90;;;;;;5104059;27;20085;-77
2024/03/06 04:22:51;;;;;;;0.70;0.70;;;3.70;99.90;;;;;;5128599;27;20077;-76
2024/03/06 04:25:17;;;;;;;0.50;0.50;;;3.60;99.90;;;;;;5098276;27;20058;-76
2024/03/06 04:27:43;;;;;;;6.20;0.80;;;3.70;99.90;;;;;;5104934;27;20039;-78
2024/03/06 04:30:09;;;;;;;0.60;0.60;;;3.70;99.90;;;;;;5103027;28;20044;-77
2024/03/06 04:32:35;;;;;;;0.50;0.50;;;3.60;99.90;;;;;;5081502;27;20039;-75
2024/03/06 04:35:01;;;;;;;0.88;0.88;;;3.70;99.90;;;;;;5085405;28;20066;-75
2024/03/06 04:37:26;;;;;;;0.52;0.52;;;3.60;99.90;;;;;;5100016;28;20138;-74
2024/03/06 04:39:52;;;;;;;0.60;0.60;;;3.70;99.90;;;;;;5069675;27;20048;-78
2024/03/06 04:42:18;;;;;;;0.50;0.50;;;3.70;99.90;;;;;;5101470;28;20051;-76
2024/03/06 04:44:45;;;;;;;0.80;0.80;;;3.60;99.90;;;;;;5105732;27;20042;-77
2024/03/06 04:47:11;;;;;;;0.68;0.68;;;3.60;99.90;;;;;;5126195;27;20040;-77
2024/03/06 04:49:37;;;;;;;0.50;0.50;;;3.60;99.90;;;;;;5109127;27;20562;-76
2024/03/06 04:52:03;;;;;;;0.60;0.60;;;3.60;99.90;;;;;;5105018;27;20039;-77
2024/03/06 04:54:29;;;;;;;0.57;0.57;;;3.60;99.90;;;;;;5125881;27;20031;-76
2024/03/06 04:56:55;;;;;;;;;;;3.60;99.90;;;;;;5094790;27;20128;-77
2024/03/06 04:59:21;;;;;;;0.60;0.60;;;4.60;99.90;;;;;;5109104;28;19916;-77
2024/03/06 05:01:46;;;;;;;0.50;0.50;;;3.60;99.90;;;;;;5118292;27;20348;-77
2024/03/06 05:04:12;;;;;;;0.50;0.50;;;4.50;99.90;;;;;;5096692;27;20046;-76
2024/03/06 05:06:38;;;;;;;0.50;0.50;;;3.70;99.90;;;;;;5101291;28;20067;-77
2024/03/06 05:09:05;;;;;;;0.60;0.60;;;3.60;99.90;;;;;;5110307;28;20043;-77
2024/03/06 05:11:31;;;;;;;0.60;0.60;;;3.60;99.90;;;;;;5113812;28;20482;-77
2024/03/06 05:14:00;;;;;;;;;;;3.60;99.90;;;;;;5083725;28;20039;-76
2024/03/06 05:16:26;;;;;;;0.60;0.60;;;3.60;99.90;;;;;;5093591;28;19924;-76
2024/03/06 05:18:52;;;;;;;;;;;3.60;99.90;;;;;;5099429;28;20072;-75
2024/03/06 05:21:18;;;;;;;0.47;0.47;;;4.30;99.90;;;;;;5113250;28;20016;-76
2024/03/06 05:23:44;;;;;;;;;;;4.00;99.90;;;;;;5092794;28;20035;-74
2024/03/06 05:26:10;;;;;;;0.50;0.50;;;3.60;99.90;;;;;;5111651;27;19915;-77
2024/03/06 05:28:35;;;;;;;0.40;0.40;;;4.70;99.90;;;;;;5123166;27;20145;-77
2024/03/06 05:31:15;;;;;;;0.60;0.60;;;3.90;99.90;;;;;;5091775;28;20494;-78
2024/03/06 05:33:40;;;;;;;0.50;0.50;;;3.70;99.90;;;;;;5104099;27;20035;-76
2024/03/06 05:36:06;;;;;;;0.93;0.93;;;3.60;99.90;;;;;;5098943;28;20042;-76
2024/03/06 05:38:32;;;;;;;0.60;0.60;;;3.60;99.90;;;;;;5100637;27;20063;-77
2024/03/06 05:40:58;;;;;;;0.50;0.50;;;2.30;99.90;;;;;;5099015;28;20039;-76
2024/03/06 05:43:24;;;;;;;0.73;0.73;;;4.10;99.90;;;;;;5087410;27;20554;-75
2024/03/06 05:45:49;;;;;;;0.57;0.57;;;3.20;99.90;;;;;;5090749;27;20035;-77
2024/03/06 05:48:15;;;;;;;1.00;0.90;;;3.70;99.90;;;;;;5082397;28;20122;-77
2024/03/06 05:50:41;;;;;;;0.60;0.60;;;3.70;99.90;;;;;;5110784;27;20114;-76
2024/03/06 05:53:07;;;;;;;;;;;3.70;99.90;;;;;;5101126;27;20142;-77
2024/03/06 05:55:32;;;;;;;0.60;0.60;;;3.70;99.90;;;;;;5081095;28;19966;-77
2024/03/06 05:57:59;;;;;;;1.02;1.00;;;3.70;99.90;;;;;;5100697;27;20052;-77
2024/03/06 06:00:25;;;;;;;0.60;0.60;;;3.30;99.90;;;;;;5101481;27;20112;-76
2024/03/06 06:02:50;;;;;;;0.55;0.55;;;3.70;99.90;;;;;;5103694;27;20123;-78
2024/03/06 06:05:19;;;;;;;0.73;0.73;;;3.70;99.90;;;;;;5097400;27;20050;-76
2024/03/06 06:07:45;;;;;;;0.70;0.70;;;3.70;99.90;;;;;;5081610;28;20102;-74
2024/03/06 06:10:11;;;;;;;0.55;0.55;;;3.70;99.90;;;;;;5113562;27;20023;-76
2024/03/06 06:12:37;;;;;;;0.52;0.52;;;3.60;99.90;;;;;;5109371;27;20455;-77
2024/03/06 06:15:03;;;;;;;0.60;0.60;;;3.70;99.90;;;;;;5110582;27;20077;-77
2024/03/06 06:17:29;;;;;;;;;;;3.70;99.90;;;;;;5124145;27;20122;-78
2024/03/06 06:19:54;;;;;;;0.70;0.70;;;3.80;99.90;;;;;;5107281;27;20010;-75
2024/03/06 06:22:20;;;;;;;0.60;0.60;;;3.70;99.90;;;;;;5084850;27;20841;-77
2024/03/06 06:24:48;;;;;;;0.60;0.60;;;3.80;99.90;;;;;;5119734;27;20051;-75
2024/03/06 06:27:14;;;;;;;0.57;0.57;;;3.80;99.90;;;;;;5091441;28;20449;-76
2024/03/06 06:29:40;;;;;;;0.98;0.95;;;3.80;99.90;;;;;;5104619;27;20044;-76
2024/03/06 06:32:07;;;;;;;0.60;0.60;;;3.80;99.90;;;;;;5101877;27;20403;-78
2024/03/06 06:34:33;;;;;;;0.60;0.60;;;4.10;99.90;;;;;;5101685;27;20061;-76
2024/03/06 06:36:58;;;;;;;0.60;0.60;;;3.70;99.90;;;;;;5103466;27;20039;-76
2024/03/06 06:39:24;;;;;;;1.10;1.05;;;4.00;99.90;;;;;;5099969;27;20485;-76
2024/03/06 06:41:50;;;;;;;0.57;0.57;;;3.80;99.90;;;;;;5107189;27;20036;-77
2024/03/06 06:44:15;;;;;;;2.78;1.10;;;3.80;99.90;;;;;;5106904;27;20171;-77
2024/03/06 06:46:42;;;;;;;0.60;0.60;;;3.90;99.90;;;;;;5115601;27;20047;-77
2024/03/06 06:49:08;;;;;;;0.73;0.73;;;3.80;99.90;;;;;;5110482;27;20085;-76
2024/03/06 06:51:35;;;;;;;0.60;0.60;;;3.80;99.90;;;;;;5088025;27;20503;-76
2024/03/06 06:54:01;;;;;;;0.40;0.40;;;3.80;99.90;;;;;;5095724;27;20075;-75
2024/03/06 06:56:27;;;;;;;0.60;0.60;;;3.80;99.90;;;;;;5096262;28;20067;-79
2024/03/06 06:58:53;;;;;;;;;;;3.90;99.90;;;;;;5098171;27;20047;-76
2024/03/06 07:01:19;;;;;;;0.63;0.63;;;3.90;99.90;;;;;;5081989;28;19938;-76
2024/03/06 07:03:46;;;;;;;0.55;0.55;;;4.50;99.90;;;;;;5097195;27;20126;-76
2024/03/06 07:06:16;;;;;;;0.98;0.98;;;1.90;99.90;;;;;;5100960;27;20451;-78
2024/03/06 07:08:42;;;;;;;0.52;0.52;;;3.90;99.90;;;;;;5123566;27;19926;-76
2024/03/06 07:11:08;;;;;;;0.82;0.82;;;5.60;99.90;;;;;;5105997;27;20040;-77
2024/03/06 07:13:34;;;;;;;0.63;0.63;;;4.00;99.90;;;;;;5081707;28;20040;-77
2024/03/06 07:16:02;;;;;;;0.90;0.90;;;4.00;99.90;;;;;;5096814;27;20043;-77
2024/03/06 07:18:28;;;;;;;0.60;0.60;;;4.10;99.90;;;;;;5097643;27;20051;-77
2024/03/06 07:20:53;;;;;;;0.50;0.50;;;3.90;99.90;;;;;;5101957;27;20490;-78
2024/03/06 07:23:19;;;;;;;0.60;0.60;;;4.00;99.90;;;;;;5102615;28;20051;-77
2024/03/06 07:25:45;;;;;;;0.50;0.50;;;4.10;99.90;;;;;;5103304;28;20046;-76
2024/03/06 07:28:11;;;;;;;0.60;0.60;;;4.10;99.90;;;;;;5103592;27;20067;-77
2024/03/06 07:30:36;;;;;;;0.60;0.60;;;4.10;99.90;;;;;;5103717;27;20039;-77
2024/03/06 07:33:02;;;;;;;0.47;0.47;;;4.20;99.90;;;;;;5085023;28;20031;-75
2024/03/06 07:35:28;;;;;;;0.60;0.60;;;4.20;99.90;;;;;;5112688;27;20436;-78
2024/03/06 07:37:53;;;;;;;0.45;0.45;;;4.20;99.90;;;;;;5111555;27;20047;-77
2024/03/06 07:40:19;;;;;;;0.80;0.80;;;4.10;99.90;;;;;;5106482;27;20137;-76
2024/03/06 07:42:45;;;;;;;0.70;0.70;;;4.30;99.90;;;;;;5089165;28;20047;-76
2024/03/06 07:45:11;;;;;;;0.57;0.57;;;4.30;99.90;;;;;;5105369;27;20122;-76
2024/03/06 07:47:37;;;;;;;0.80;0.80;;;4.10;99.90;;;;;;5087236;28;20040;-75
2024/03/06 07:50:04;;;;;;;;;;;4.30;99.90;;;;;;5117647;27;20066;-79
2024/03/06 07:52:30;;;;;;;0.43;0.43;;;4.40;99.90;;;;;;5104160;27;20295;-80
2024/03/06 07:54:56;;;;;;;0.47;0.47;;;4.50;99.90;;;;;;5107626;27;20032;-81
2024/03/06 07:57:21;;;;;;;0.70;0.70;;;4.50;99.90;;;;;;5103154;27;20044;-81
2024/03/06 07:59:48;;;;;;;0.85;0.85;;;4.40;99.90;;;;;;5106062;27;20070;-80
2024/03/06 08:02:14;;;;;;;0.50;0.50;;;4.50;99.90;;;;;;5105939;27;20101;-80
2024/03/06 08:04:40;;;;;;;0.47;0.47;;;4.50;99.90;;;;;;5098818;28;20032;-80
2024/03/06 08:07:06;;;;;;;0.40;0.40;;;3.80;99.90;;;;;;5116125;27;20058;-81
2024/03/06 08:09:33;;;;;;;0.60;0.60;;;4.90;99.90;;;;;;5129309;27;20084;-80
2024/03/06 08:11:59;;;;;;;0.98;0.98;;;4.60;99.90;;;;;;5113794;27;20039;-81
2024/03/06 08:14:25;;;;;;;0.60;0.60;;;4.70;99.90;;;;;;5113765;27;20545;-80
2024/03/06 08:16:51;;;;;;;;;;;5.20;99.90;;;;;;5094920;27;20057;-78
2024/03/06 08:19:17;;;;;;;0.50;0.50;;;4.70;99.90;;;;;;5124424;27;19923;-79
2024/03/06 08:21:42;;;;;;;0.45;0.45;;;4.70;99.90;;;;;;5122132;27;20043;-82
2024/03/06 08:24:08;;;;;;;0.63;0.63;;;5.50;99.90;;;;;;5130417;27;20045;-81
2024/03/06 08:26:34;;;;;;;0.50;0.50;;;4.80;99.90;;;;;;5123434;27;20096;-81
2024/03/06 08:28:59;;;;;;;0.50;0.50;;;4.80;99.90;;;;;;5097457;28;20398;-80
2024/03/06 08:31:25;;;;;;;1.40;1.33;;;4.80;99.90;;;;;;5123667;27;20039;-80
2024/03/06 08:33:52;;;;;;;0.60;0.60;;;4.80;99.90;;;;;;5123231;27;20042;-82
2024/03/06 08:36:19;;;;;;;0.50;0.50;;;4.80;99.90;;;;;;5131713;27;20161;-79
2024/03/06 08:38:45;;;;;;;0.70;0.70;;;4.90;99.90;;;;;;5125405;27;20043;-81
2024/03/06 08:41:11;;;;;;;0.50;0.50;;;5.10;99.90;;;;;;5125531;27;20111;-80
2024/03/06 08:43:37;;;;;;;0.70;0.70;;;5.20;99.90;;;;;;5124628;27;20054;-79
2024/03/06 08:46:03;;;;;;;0.50;0.50;;;5.30;99.90;;;;;;5118070;27;20038;-80
2024/03/06 08:48:29;;;;;;;0.52;0.52;;;5.40;99.90;;;;;;5122766;27;20522;-80
2024/03/06 08:50:55;;;;;;;1.17;1.17;;;5.40;99.90;;;;;;5117352;27;20373;-82
2024/03/06 08:53:21;;;;;;;0.60;0.60;;;5.50;99.90;;;;;;5118912;27;20032;-83
2024/03/06 08:55:47;;;;;;;0.55;0.55;;;5.60;99.90;;;;;;5123678;27;20586;-79
2024/03/06 08:58:13;;;;;;;0.50;0.50;;;5.70;99.90;;;;;;5121234;27;20127;-79
2024/03/06 09:00:39;;;;;;;0.35;0.35;;;5.80;99.90;;;;;;5132911;27;20130;-80
2024/03/06 09:03:05;;;;;;;0.50;0.50;;;5.80;99.90;;;;;;5118449;27;20066;-82
2024/03/06 09:05:31;;;;;;;0.47;0.47;;;5.90;99.90;;;;;;5130464;27;20035;-82
2024/03/06 09:07:57;;;;;;;0.60;0.60;;;5.80;99.90;;;;;;5133191;27;20047;-81
2024/03/06 09:10:23;;;;;;;0.50;0.50;;;5.90;99.90;;;;;;5132168;27;20416;-84
2024/03/06 09:12:49;;;;;;;0.65;0.65;;;5.90;99.90;;;;;;5113298;27;20047;-80
2024/03/06 09:15:15;;;;;;;3.60;0.95;;;6.60;99.90;;;;;;5114451;27;20024;-82
2024/03/06 09:17:41;;;;;;;;;;;6.00;99.90;;;;;;5136468;27;20055;-83
2024/03/06 09:20:10;;;;;;;0.63;0.63;;;6.30;99.90;;;;;;5129997;27;19950;-80
2024/03/06 09:22:40;;;;;;;0.60;0.60;;;6.30;99.90;;;;;;5132382;27;20062;-83
2024/03/06 09:25:06;;;;;;;0.43;0.43;;;6.70;99.90;;;;;;5110336;27;20077;-80
2024/03/06 09:27:32;;;;;;;0.50;0.50;;;6.50;99.90;;;;;;5097391;28;20051;-80
2024/03/06 09:29:58;;;;;;;0.50;0.50;;;6.90;99.90;;;;;;5127599;27;20461;-81
2024/03/06 09:32:26;;;;;;;0.57;0.50;;;6.70;99.90;;;;;;5126238;27;20034;-81
2024/03/06 09:34:52;;;;;;;0.63;0.63;;;6.80;99.90;;;;;;5109693;27;20036;-80
2024/03/06 09:37:19;;;;;;;0.80;0.80;;;6.90;99.90;;;;;;5129501;27;20096;-83
2024/03/06 09:39:47;;;;;;;0.50;0.50;;;7.50;99.90;;;;;;5126564;27;20043;-82
2024/03/06 09:42:14;;;;;;;0.88;0.88;;;7.40;99.90;;;;;;5111342;27;20114;-83
2024/03/06 09:44:40;;;;;;;0.40;0.40;;;7.20;99.90;;;;;;5101502;27;20049;-81
2024/03/06 09:47:07;;;;;;;0.88;0.70;;;7.20;99.90;;;;;;5131844;27;20052;-82
2024/03/06 09:49:34;;;;;;;0.80;0.80;;;7.70;99.90;;;;;;5130008;27;20499;-81
2024/03/06 09:52:01;;;;;;;0.50;0.50;;;8.20;99.90;;;;;;5134601;27;20067;-83
2024/03/06 09:54:29;;;;;;;0.73;0.73;;;8.00;99.90;;;;;;5112929;27;20040;-81
2024/03/06 09:56:57;;;;;;;0.30;0.30;;;7.80;99.90;;;;;;5124924;27;20070;-82
2024/03/06 09:59:23;;;;;;;0.60;0.60;;;7.60;99.90;;;;;;5099582;27;20050;-82
2024/03/06 10:01:58;;;;;;;0.43;0.43;;;7.80;99.90;;;;;;5103065;27;20035;-82
2024/03/06 10:04:24;;;;;;;0.55;0.55;;;7.90;99.90;;;;;;5117027;27;20073;-82
2024/03/06 10:06:54;;;;;;;1.13;1.02;;;8.00;99.90;;;;;;5114837;27;20582;-84
2024/03/06 10:09:21;;;;;;;0.40;0.40;;;8.10;99.90;;;;;;5110753;27;20039;-81
2024/03/06 10:11:47;;;;;;;1.27;0.85;;;8.10;99.90;;;;;;5122263;27;20471;-83
2024/03/06 10:14:13;;;;;;;1.30;0.90;;;8.10;99.90;;;;;;5114280;27;20036;-83
2024/03/06 10:16:51;;;;;;;0.40;0.40;;;8.20;99.90;;;;;;5117491;27;20570;-82
2024/03/06 10:19:23;;;;;;;0.32;0.32;;;8.30;99.90;;;;;;5109733;27;20043;-82
2024/03/06 10:21:53;;;;;;;1.10;1.10;;;8.30;99.90;;;;;;5097615;27;20040;-81
2024/03/06 10:24:24;;;;;;;0.50;0.50;;;8.30;99.90;;;;;;5112256;27;20075;-79
2024/03/06 10:26:54;;;;;;;0.30;0.30;;;8.40;99.90;;;;;;5121636;27;20039;-81
2024/03/06 10:29:21;;;;;;;1.65;0.65;;;8.50;99.90;;;;;;5102828;27;20125;-81
2024/03/06 10:31:59;;;;;;;0.60;0.60;;;8.50;99.90;;;;;;5110553;27;20043;-80
2024/03/06 10:34:27;;;;;;;0.40;0.40;;;8.60;99.90;;;;;;5109337;27;20118;-82
2024/03/06 10:37:05;;;;;;;0.40;0.40;;;8.50;99.90;;;;;;5141140;27;20039;-81
2024/03/06 10:39:41;;;;;;;0.70;0.70;;;8.50;99.90;;;;;;5127043;27;20039;-81
2024/03/06 10:42:08;;;;;;;0.40;0.40;;;8.40;99.90;;;;;;5125629;27;20042;-81
2024/03/06 10:44:36;;;;;;;0.50;0.50;;;8.50;99.90;;;;;;5123272;27;20486;-79
2024/03/06 10:47:05;;;;;;;0.70;0.70;;;8.50;99.90;;;;;;5125752;27;20390;-80
2024/03/06 10:49:32;;;;;;;0.30;0.30;;;8.60;99.90;;;;;;5131221;27;20115;-82
2024/03/06 10:52:05;;;;;;;0.40;0.40;;;8.60;99.90;;;;;;5106341;27;20046;-82
2024/03/06 10:54:32;;;;;;;0.43;0.43;;;8.70;99.90;;;;;;5112974;27;20098;-81
2024/03/06 10:56:58;;;;;;;0.30;0.30;;;8.80;99.90;;;;;;5133935;27;20057;-80
2024/03/06 10:59:28;;;;;;;;;;;8.90;99.90;;;;;;5131055;27;20059;-82
2024/03/06 11:02:00;;;;;;;0.60;0.60;;;8.90;99.90;;;;;;5108711;27;19939;-81
2024/03/06 11:04:35;;;;;;;1.05;0.95;;;8.90;99.90;;;;;;5126771;27;20035;-81
2024/03/06 11:07:02;;;;;;;0.30;0.30;;;9.00;99.90;;;;;;5115934;27;20915;-81
2024/03/06 11:09:34;;;;;;;1.08;1.02;;;9.00;99.90;;;;;;5115150;27;20046;-82
2024/03/06 11:12:02;;;;;;;1.75;0.82;;;9.10;99.90;;;;;;5125417;27;20036;-82
2024/03/06 11:14:31;;;;;;;0.65;0.60;;;9.00;99.90;;;;;;5114380;27;20109;-82
2024/03/06 11:17:02;;;;;;;3.30;1.75;;;9.00;99.90;;;;;;5116091;27;20514;-80
2024/03/06 11:19:30;;;;;;;0.40;0.40;;;8.90;99.90;;;;;;5130814;27;20115;-80
2024/03/06 11:21:56;;;;;;;0.73;0.60;;;8.80;99.90;;;;;;5106805;27;20066;-80
2024/03/06 11:24:23;;;;;;;0.82;0.82;;;8.80;99.90;;;;;;5125438;27;21881;-81
2024/03/06 11:26:49;;;;;;;0.40;0.40;;;8.80;99.90;;;;;;5125621;27;20047;-80
2024/03/06 11:29:19;;;;;;;0.40;0.40;;;8.90;99.90;;;;;;5125618;27;20062;-80
2024/03/06 11:32:07;;;;;;;0.45;0.45;;;9.00;99.90;;;;;;5130814;27;20031;-81
2024/03/06 11:34:34;;;;;;;1.60;1.55;;;9.10;99.90;;;;;;5104834;27;20567;-79
2024/03/06 11:37:04;;;;;;;0.40;0.40;;;9.20;99.90;;;;;;5117072;27;20046;-81
2024/03/06 11:39:36;;;;;;;0.60;0.60;;;9.20;99.90;;;;;;5110468;27;20035;-79
2024/03/06 11:42:03;;;;;;;0.40;0.40;;;9.30;99.90;;;;;;5128916;27;20547;-79
2024/03/06 11:44:29;;;;;;;0.65;0.65;;;9.50;99.90;;;;;;5135207;27;20484;-80
2024/03/06 11:47:03;;;;;;;0.40;0.40;;;9.50;99.90;;;;;;5135395;27;20122;-80
2024/03/06 11:49:37;;;;;;;0.30;0.30;;;9.70;99.90;;;;;;5120315;27;20102;-80
2024/03/06 11:52:08;;;;;;;0.75;0.75;;;9.70;99.90;;;;;;5124387;27;20035;-81
2024/03/06 11:54:34;;;;;;;0.60;0.60;;;9.80;99.90;;;;;;5126288;27;20048;-80
2024/03/06 11:57:02;;;;;;;0.60;0.40;;;9.90;99.90;;;;;;5104158;27;20039;-80
2024/03/06 11:59:31;;;;;;;0.35;0.35;;;10.00;99.90;;;;;;5114151;27;20355;-80
2024/03/06 12:02:02;;;;;;;0.45;0.45;;;10.00;99.90;;;;;;5135321;27;20026;-83
2024/03/06 12:04:29;;;;;;;0.30;0.30;;;10.10;99.90;;;;;;5096644;27;20122;-82
2024/03/06 12:07:08;;;;;;;0.38;0.38;;;10.10;99.90;;;;;;5107121;27;20425;-81
2024/03/06 12:09:36;;;;;;;0.40;0.40;;;10.20;99.90;;;;;;5106828;28;20124;-81
2024/03/06 12:12:03;;;;;;;2.38;1.63;;;10.20;99.90;;;;;;5104956;27;20035;-79
2024/03/06 12:14:29;;;;;;;1.15;1.08;;;10.20;99.90;;;;;;5130388;27;20048;-82
2024/03/06 12:17:07;;;;;;;0.70;0.70;;;10.10;99.90;;;;;;5119430;27;20039;-82
2024/03/06 12:19:35;;;;;;;0.55;0.43;;;10.20;99.90;;;;;;5116305;27;20039;-81
2024/03/06 12:22:04;;;;;;;0.70;0.30;;;10.30;99.90;;;;;;5104209;27;20096;-81
2024/03/06 12:24:30;;;;;;;0.77;0.77;;;10.40;99.90;;;;;;5104847;28;20039;-82
2024/03/06 12:27:03;;;;;;;;;;;10.60;99.90;;;;;;5105193;27;20520;-80
2024/03/06 12:29:31;;;;;;;0.95;0.95;;;10.70;99.90;;;;;;5120643;27;20393;-83
2024/03/06 12:31:58;;;;;;;0.65;0.65;;;10.60;99.90;;;;;;5143212;27;20042;-86
2024/03/06 12:34:24;;;;;;;1.27;0.85;;;10.60;99.90;;;;;;5111148;27;20125;-82
2024/03/06 12:36:50;;;;;;;;;;;10.60;99.90;;;;;;5136144;27;20045;-80
2024/03/06 12:39:21;;;;;;;0.50;0.50;;;10.60;99.90;;;;;;5111354;27;20110;-80
2024/03/06 12:41:47;;;;;;;0.60;0.60;;;10.80;99.90;;;;;;5130912;27;20051;-83
2024/03/06 12:44:15;;;;;;;0.40;0.40;;;11.00;99.90;;;;;;5128318;27;20054;-81
2024/03/06 12:46:42;;;;;;;0.80;0.80;;;11.30;99.90;;;;;;5105108;27;20552;-82
2024/03/06 12:49:08;;;;;;;0.35;0.35;;;11.40;99.90;;;;;;5117171;27;20049;-81
2024/03/06 12:51:33;;;;;;;0.90;0.90;;;11.50;99.90;;;;;;5134513;27;20031;-81
2024/03/06 12:54:00;;;;;;;0.63;0.63;;;11.40;99.90;;;;;;5089603;27;20036;-81
2024/03/06 12:56:26;;;;;;;;;;;11.50;99.90;;;;;;5127073;27;20039;-80
2024/03/06 12:58:52;;;;;;;0.93;0.93;;;11.40;99.90;;;;;;5107095;27;19961;-81